sensor_id;sensor_type;location;lat;lon;timestamp;pressure;altitude;pressure_sealevel;temperature;humidity
73692;BME280;61996;49.910;35.562;2023-04-24T00:00:57;99349.88;;;20.25;39.76
73692;BME280;61996;49.910;35.562;2023-04-24T00:04:02;99337.44;;;20.16;40.20
73692;BME280;61996;49.910;35.562;2023-04-24T00:07:07;99340.31;;;20.23;40.45
73692;BME280;61996;49.910;35.562;2023-04-24T00:10:10;99328.81;;;20.22;40.37
73692;BME280;61996;49.910;35.562;2023-04-24T00:13:13;99328.13;;;20.20;40.02
73692;BME280;61996;49.910;35.562;2023-04-24T00:16:16;99339.34;;;20.24;40.05
73692;BME280;61996;49.910;35.562;2023-04-24T00:19:19;99339.66;;;20.21;40.44
73692;BME280;61996;49.910;35.562;2023-04-24T00:22:25;99339.47;;;20.22;40.31
73692;BME280;61996;49.910;35.562;2023-04-24T00:25:28;99344.16;;;20.20;40.18
73692;BME280;61996;49.910;35.562;2023-04-24T00:28:30;99342.09;;;20.14;40.23
73692;BME280;61996;49.910;35.562;2023-04-24T00:31:34;99347.16;;;20.17;40.13
73692;BME280;61996;49.910;35.562;2023-04-24T00:34:37;99341.31;;;20.22;40.11
73692;BME280;61996;49.910;35.562;2023-04-24T00:37:41;99345.81;;;20.21;40.10
73692;BME280;61996;49.910;35.562;2023-04-24T00:40:44;99348.66;;;20.20;40.29
73692;BME280;61996;49.910;35.562;2023-04-24T00:43:48;99339.81;;;20.19;40.21
73692;BME280;61996;49.910;35.562;2023-04-24T00:46:51;99347.03;;;20.09;40.21
73692;BME280;61996;49.910;35.562;2023-04-24T00:49:56;99343.16;;;20.21;39.90
73692;BME280;61996;49.910;35.562;2023-04-24T00:53:00;99349.81;;;20.17;40.08
73692;BME280;61996;49.910;35.562;2023-04-24T00:56:03;99347.16;;;20.17;40.00
73692;BME280;61996;49.910;35.562;2023-04-24T00:59:07;99346.31;;;20.17;40.12
73692;BME280;61996;49.910;35.562;2023-04-24T01:02:10;99348.09;;;20.16;40.29
73692;BME280;61996;49.910;35.562;2023-04-24T01:05:14;99347.44;;;20.14;40.17
73692;BME280;61996;49.910;35.562;2023-04-24T01:08:18;99343.09;;;20.13;39.94
73692;BME280;61996;49.910;35.562;2023-04-24T01:11:22;99347.19;;;20.25;40.23
73692;BME280;61996;49.910;35.562;2023-04-24T01:14:24;99347.97;;;20.18;39.67
73692;BME280;61996;49.910;35.562;2023-04-24T01:17:27;99343.09;;;20.13;40.22
73692;BME280;61996;49.910;35.562;2023-04-24T01:20:30;99345.53;;;20.07;39.93
73692;BME280;61996;49.910;35.562;2023-04-24T01:23:35;99343.19;;;20.04;39.99
73692;BME280;61996;49.910;35.562;2023-04-24T01:26:38;99337.69;;;20.05;40.23
73692;BME280;61996;49.910;35.562;2023-04-24T01:29:41;99341.66;;;20.01;39.96
73692;BME280;61996;49.910;35.562;2023-04-24T01:32:44;99343.03;;;20.05;40.05
73692;BME280;61996;49.910;35.562;2023-04-24T01:35:48;99345.84;;;20.04;39.75
73692;BME280;61996;49.910;35.562;2023-04-24T01:38:52;99331.50;;;20.05;39.83
73692;BME280;61996;49.910;35.562;2023-04-24T01:41:55;99332.34;;;20.05;39.74
73692;BME280;61996;49.910;35.562;2023-04-24T01:44:59;99329.53;;;20.07;39.80
73692;BME280;61996;49.910;35.562;2023-04-24T01:48:02;99334.63;;;20.00;39.83
73692;BME280;61996;49.910;35.562;2023-04-24T01:51:05;99322.97;;;20.01;39.98
73692;BME280;61996;49.910;35.562;2023-04-24T01:54:09;99337.13;;;20.02;39.69
73692;BME280;61996;49.910;35.562;2023-04-24T01:57:13;99334.13;;;19.96;39.97
73692;BME280;61996;49.910;35.562;2023-04-24T02:00:16;99326.00;;;20.06;39.67
73692;BME280;61996;49.910;35.562;2023-04-24T02:03:19;99338.13;;;20.01;39.74
73692;BME280;61996;49.910;35.562;2023-04-24T02:06:22;99336.91;;;19.95;40.04
73692;BME280;61996;49.910;35.562;2023-04-24T02:09:26;99340.66;;;20.02;39.89
73692;BME280;61996;49.910;35.562;2023-04-24T02:12:29;99339.97;;;20.00;39.81
73692;BME280;61996;49.910;35.562;2023-04-24T02:15:32;99346.06;;;19.92;39.79
73692;BME280;61996;49.910;35.562;2023-04-24T02:18:35;99347.91;;;19.92;39.94
73692;BME280;61996;49.910;35.562;2023-04-24T02:21:37;99340.75;;;19.92;39.71
73692;BME280;61996;49.910;35.562;2023-04-24T02:24:42;99341.72;;;19.91;39.71
73692;BME280;61996;49.910;35.562;2023-04-24T02:27:45;99346.41;;;19.89;39.86
73692;BME280;61996;49.910;35.562;2023-04-24T02:30:47;99350.19;;;19.87;39.83
73692;BME280;61996;49.910;35.562;2023-04-24T02:33:50;99342.03;;;19.88;39.84
73692;BME280;61996;49.910;35.562;2023-04-24T02:36:53;99350.03;;;19.88;39.70
73692;BME280;61996;49.910;35.562;2023-04-24T02:39:57;99352.19;;;19.85;39.55
73692;BME280;61996;49.910;35.562;2023-04-24T02:43:00;99346.69;;;19.86;39.72
73692;BME280;61996;49.910;35.562;2023-04-24T02:46:03;99351.56;;;19.91;39.56
73692;BME280;61996;49.910;35.562;2023-04-24T02:49:06;99353.56;;;19.89;39.70
73692;BME280;61996;49.910;35.562;2023-04-24T02:52:09;99351.03;;;19.87;39.68
73692;BME280;61996;49.910;35.562;2023-04-24T02:55:13;99359.59;;;19.91;39.88
73692;BME280;61996;49.910;35.562;2023-04-24T02:58:16;99353.25;;;19.92;39.67
73692;BME280;61996;49.910;35.562;2023-04-24T03:01:21;99360.81;;;19.96;39.88
73692;BME280;61996;49.910;35.562;2023-04-24T03:04:24;99362.75;;;19.94;39.51
73692;BME280;61996;49.910;35.562;2023-04-24T03:07:27;99363.31;;;19.98;39.69
73692;BME280;61996;49.910;35.562;2023-04-24T03:10:31;99364.84;;;20.01;39.92
73692;BME280;61996;49.910;35.562;2023-04-24T03:13:35;99373.69;;;20.01;39.60
73692;BME280;61996;49.910;35.562;2023-04-24T03:16:38;99366.88;;;20.07;39.91
73692;BME280;61996;49.910;35.562;2023-04-24T03:19:41;99368.03;;;20.04;39.90
73692;BME280;61996;49.910;35.562;2023-04-24T03:22:44;99372.16;;;19.98;39.80
73692;BME280;61996;49.910;35.562;2023-04-24T03:25:48;99368.66;;;19.98;39.95
73692;BME280;61996;49.910;35.562;2023-04-24T03:28:51;99370.56;;;20.06;39.87
73692;BME280;61996;49.910;35.562;2023-04-24T03:31:54;99374.00;;;19.98;40.03
73692;BME280;61996;49.910;35.562;2023-04-24T03:34:57;99378.03;;;20.02;39.84
73692;BME280;61996;49.910;35.562;2023-04-24T03:38:00;99371.00;;;20.01;39.87
73692;BME280;61996;49.910;35.562;2023-04-24T03:41:04;99380.41;;;20.05;40.17
73692;BME280;61996;49.910;35.562;2023-04-24T03:44:07;99382.06;;;20.06;39.98
73692;BME280;61996;49.910;35.562;2023-04-24T03:47:10;99374.50;;;20.02;39.94
73692;BME280;61996;49.910;35.562;2023-04-24T03:50:12;99379.94;;;20.10;40.35
73692;BME280;61996;49.910;35.562;2023-04-24T03:53:16;99376.13;;;20.12;40.03
73692;BME280;61996;49.910;35.562;2023-04-24T03:56:20;99381.69;;;20.19;40.30
73692;BME280;61996;49.910;35.562;2023-04-24T03:59:23;99377.25;;;20.27;39.92
73692;BME280;61996;49.910;35.562;2023-04-24T04:02:26;99381.31;;;20.32;39.92
73692;BME280;61996;49.910;35.562;2023-04-24T04:05:29;99382.97;;;20.33;40.08
73692;BME280;61996;49.910;35.562;2023-04-24T04:08:32;99376.47;;;20.35;39.97
73692;BME280;61996;49.910;35.562;2023-04-24T04:11:36;99383.81;;;20.33;39.98
73692;BME280;61996;49.910;35.562;2023-04-24T04:14:39;99378.69;;;20.40;39.95
73692;BME280;61996;49.910;35.562;2023-04-24T04:17:42;99378.25;;;20.44;40.33
73692;BME280;61996;49.910;35.562;2023-04-24T04:20:44;99381.22;;;20.41;40.08
73692;BME280;61996;49.910;35.562;2023-04-24T04:23:47;99376.44;;;20.45;40.09
73692;BME280;61996;49.910;35.562;2023-04-24T04:26:52;99384.81;;;20.50;40.07
73692;BME280;61996;49.910;35.562;2023-04-24T04:29:58;99386.13;;;20.46;40.05
73692;BME280;61996;49.910;35.562;2023-04-24T04:33:02;99390.47;;;20.47;40.13
73692;BME280;61996;49.910;35.562;2023-04-24T04:36:05;99391.81;;;20.51;40.06
73692;BME280;61996;49.910;35.562;2023-04-24T04:39:09;99395.19;;;20.53;40.10
73692;BME280;61996;49.910;35.562;2023-04-24T04:42:13;99391.38;;;20.56;39.92
73692;BME280;61996;49.910;35.562;2023-04-24T04:45:16;99390.84;;;20.52;40.19
73692;BME280;61996;49.910;35.562;2023-04-24T04:48:20;99388.22;;;20.60;39.97
73692;BME280;61996;49.910;35.562;2023-04-24T04:51:22;99397.53;;;20.56;40.26
73692;BME280;61996;49.910;35.562;2023-04-24T04:54:25;99402.09;;;20.64;40.04
73692;BME280;61996;49.910;35.562;2023-04-24T04:57:29;99397.38;;;20.58;40.16
73692;BME280;61996;49.910;35.562;2023-04-24T05:00:32;99399.22;;;20.57;40.34
73692;BME280;61996;49.910;35.562;2023-04-24T05:03:37;99393.88;;;20.57;40.38
73692;BME280;61996;49.910;35.562;2023-04-24T05:06:40;99397.09;;;20.61;40.21
73692;BME280;61996;49.910;35.562;2023-04-24T05:09:43;99391.75;;;20.61;40.41
73692;BME280;61996;49.910;35.562;2023-04-24T05:12:47;99396.75;;;20.64;40.24
73692;BME280;61996;49.910;35.562;2023-04-24T05:15:50;99394.25;;;20.62;40.30
73692;BME280;61996;49.910;35.562;2023-04-24T05:18:53;99389.06;;;20.61;40.47
73692;BME280;61996;49.910;35.562;2023-04-24T05:21:56;99397.31;;;20.67;40.36
73692;BME280;61996;49.910;35.562;2023-04-24T05:24:59;99387.63;;;20.66;40.50
73692;BME280;61996;49.910;35.562;2023-04-24T05:28:03;99386.63;;;20.67;40.40
73692;BME280;61996;49.910;35.562;2023-04-24T05:31:06;99388.44;;;20.67;40.25
73692;BME280;61996;49.910;35.562;2023-04-24T05:34:09;99390.63;;;20.71;40.38
73692;BME280;61996;49.910;35.562;2023-04-24T05:37:12;99391.34;;;20.73;40.52
73692;BME280;61996;49.910;35.562;2023-04-24T05:40:14;99384.81;;;20.76;40.24
73692;BME280;61996;49.910;35.562;2023-04-24T05:43:19;99381.16;;;20.77;40.58
73692;BME280;61996;49.910;35.562;2023-04-24T05:46:21;99388.25;;;20.86;40.27
73692;BME280;61996;49.910;35.562;2023-04-24T05:49:24;99379.38;;;20.86;40.35
73692;BME280;61996;49.910;35.562;2023-04-24T05:52:27;99381.41;;;20.92;40.15
73692;BME280;61996;49.910;35.562;2023-04-24T05:55:30;99380.56;;;20.91;40.11
73692;BME280;61996;49.910;35.562;2023-04-24T05:58:34;99374.34;;;20.83;40.22
73692;BME280;61996;49.910;35.562;2023-04-24T06:01:38;99370.50;;;20.85;40.38
73692;BME280;61996;49.910;35.562;2023-04-24T06:04:42;99373.38;;;20.92;40.36
73692;BME280;61996;49.910;35.562;2023-04-24T06:07:47;99367.91;;;20.93;40.10
73692;BME280;61996;49.910;35.562;2023-04-24T06:10:50;99376.91;;;20.92;40.49
73692;BME280;61996;49.910;35.562;2023-04-24T06:13:54;99371.41;;;20.94;40.27
73692;BME280;61996;49.910;35.562;2023-04-24T06:16:57;99373.97;;;21.03;40.23
73692;BME280;61996;49.910;35.562;2023-04-24T06:20:00;99369.91;;;20.99;40.31
73692;BME280;61996;49.910;35.562;2023-04-24T06:23:05;99375.13;;;21.01;40.23
73692;BME280;61996;49.910;35.562;2023-04-24T06:26:08;99381.53;;;21.08;40.00
73692;BME280;61996;49.910;35.562;2023-04-24T06:29:12;99377.84;;;21.09;39.96
73692;BME280;61996;49.910;35.562;2023-04-24T06:32:15;99376.63;;;21.03;39.72
73692;BME280;61996;49.910;35.562;2023-04-24T06:35:18;99383.34;;;21.07;40.10
73692;BME280;61996;49.910;35.562;2023-04-24T06:38:20;99391.03;;;21.11;39.73
73692;BME280;61996;49.910;35.562;2023-04-24T06:41:23;99392.25;;;21.16;39.72
73692;BME280;61996;49.910;35.562;2023-04-24T06:44:27;99390.88;;;21.12;39.58
73692;BME280;61996;49.910;35.562;2023-04-24T06:47:30;99394.38;;;21.13;39.84
73692;BME280;61996;49.910;35.562;2023-04-24T06:50:33;99393.56;;;21.12;39.61
73692;BME280;61996;49.910;35.562;2023-04-24T06:53:36;99389.53;;;21.08;39.66
73692;BME280;61996;49.910;35.562;2023-04-24T06:56:39;99395.94;;;21.15;39.58
73692;BME280;61996;49.910;35.562;2023-04-24T06:59:46;99395.09;;;21.15;39.67
73692;BME280;61996;49.910;35.562;2023-04-24T07:02:49;99396.56;;;21.09;39.43
73692;BME280;61996;49.910;35.562;2023-04-24T07:05:52;99391.88;;;21.11;39.53
73692;BME280;61996;49.910;35.562;2023-04-24T07:08:55;99383.19;;;21.09;39.22
73692;BME280;61996;49.910;35.562;2023-04-24T07:11:57;99392.34;;;21.06;39.35
73692;BME280;61996;49.910;35.562;2023-04-24T07:15:02;99386.38;;;21.13;39.38
73692;BME280;61996;49.910;35.562;2023-04-24T07:18:05;99387.19;;;21.13;39.20
73692;BME280;61996;49.910;35.562;2023-04-24T07:21:08;99390.25;;;21.18;39.06
73692;BME280;61996;49.910;35.562;2023-04-24T07:24:11;99383.06;;;21.19;39.05
73692;BME280;61996;49.910;35.562;2023-04-24T07:27:14;99380.56;;;21.17;38.78
73692;BME280;61996;49.910;35.562;2023-04-24T07:30:18;99378.91;;;21.24;39.09
73692;BME280;61996;49.910;35.562;2023-04-24T07:33:21;99381.25;;;21.27;39.08
73692;BME280;61996;49.910;35.562;2023-04-24T07:36:24;99372.41;;;21.27;38.61
73692;BME280;61996;49.910;35.562;2023-04-24T07:39:28;99377.53;;;21.20;38.51
73692;BME280;61996;49.910;35.562;2023-04-24T07:42:31;99369.22;;;21.23;38.67
73692;BME280;61996;49.910;35.562;2023-04-24T07:45:37;99367.38;;;21.24;38.70
73692;BME280;61996;49.910;35.562;2023-04-24T07:48:41;99373.97;;;21.29;38.51
73692;BME280;61996;49.910;35.562;2023-04-24T07:51:44;99364.25;;;21.28;38.72
73692;BME280;61996;49.910;35.562;2023-04-24T07:54:47;99370.44;;;21.29;38.41
73692;BME280;61996;49.910;35.562;2023-04-24T07:57:51;99363.44;;;21.28;38.44
73692;BME280;61996;49.910;35.562;2023-04-24T08:00:55;99356.06;;;21.30;38.66
73692;BME280;61996;49.910;35.562;2023-04-24T08:03:58;99362.03;;;21.24;38.63
73692;BME280;61996;49.910;35.562;2023-04-24T08:07:01;99354.06;;;21.32;38.52
73692;BME280;61996;49.910;35.562;2023-04-24T08:10:04;99358.75;;;21.30;38.31
73692;BME280;61996;49.910;35.562;2023-04-24T08:13:08;99351.56;;;21.30;38.56
73692;BME280;61996;49.910;35.562;2023-04-24T08:16:14;99353.56;;;21.28;38.59
73692;BME280;61996;49.910;35.562;2023-04-24T08:19:17;99343.91;;;21.36;38.77
73692;BME280;61996;49.910;35.562;2023-04-24T08:22:19;99350.09;;;21.36;38.86
73692;BME280;61996;49.910;35.562;2023-04-24T08:25:22;99358.78;;;21.38;38.43
73692;BME280;61996;49.910;35.562;2023-04-24T08:28:26;99348.53;;;21.33;38.25
73692;BME280;61996;49.910;35.562;2023-04-24T08:31:30;99339.53;;;21.34;38.44
73692;BME280;61996;49.910;35.562;2023-04-24T08:34:33;99336.00;;;21.34;38.44
73692;BME280;61996;49.910;35.562;2023-04-24T08:37:36;99344.41;;;21.39;38.55
73692;BME280;61996;49.910;35.562;2023-04-24T08:40:39;99341.06;;;21.45;38.11
73692;BME280;61996;49.910;35.562;2023-04-24T08:43:42;99344.91;;;21.43;38.53
73692;BME280;61996;49.910;35.562;2023-04-24T08:46:46;99333.88;;;21.46;38.33
73692;BME280;61996;49.910;35.562;2023-04-24T08:49:50;99323.84;;;21.48;38.63
73692;BME280;61996;49.910;35.562;2023-04-24T08:52:54;99332.88;;;21.47;38.36
73692;BME280;61996;49.910;35.562;2023-04-24T08:55:58;99325.22;;;21.52;38.01
73692;BME280;61996;49.910;35.562;2023-04-24T08:59:02;99318.34;;;21.49;38.21
73692;BME280;61996;49.910;35.562;2023-04-24T09:02:07;99309.50;;;21.57;38.13
73692;BME280;61996;49.910;35.562;2023-04-24T09:05:13;99316.84;;;21.55;38.49
73692;BME280;61996;49.910;35.562;2023-04-24T09:08:17;99296.13;;;21.49;39.57
73692;BME280;61996;49.910;35.562;2023-04-24T09:11:20;99301.97;;;21.52;39.29
73692;BME280;61996;49.910;35.562;2023-04-24T09:14:25;99296.28;;;21.55;38.65
73692;BME280;61996;49.910;35.562;2023-04-24T09:17:30;99289.44;;;21.61;39.04
73692;BME280;61996;49.910;35.562;2023-04-24T09:20:33;99297.13;;;21.56;38.71
73692;BME280;61996;49.910;35.562;2023-04-24T09:23:37;99290.78;;;21.57;38.60
73692;BME280;61996;49.910;35.562;2023-04-24T09:26:40;99289.44;;;21.61;38.90
73692;BME280;61996;49.910;35.562;2023-04-24T09:29:53;99284.59;;;21.56;39.12
73692;BME280;61996;49.910;35.562;2023-04-24T09:33:12;99288.41;;;21.54;39.19
73692;BME280;61996;49.910;35.562;2023-04-24T09:36:17;99282.75;;;21.57;39.15
73692;BME280;61996;49.910;35.562;2023-04-24T09:39:19;99285.25;;;21.58;38.27
73692;BME280;61996;49.910;35.562;2023-04-24T09:42:22;99279.06;;;21.58;38.82
73692;BME280;61996;49.910;35.562;2023-04-24T09:45:27;99273.53;;;21.59;38.39
73692;BME280;61996;49.910;35.562;2023-04-24T09:48:32;99271.03;;;21.58;38.85
73692;BME280;61996;49.910;35.562;2023-04-24T09:51:35;99275.72;;;21.56;39.23
73692;BME280;61996;49.910;35.562;2023-04-24T09:54:39;99276.22;;;21.59;38.98
73692;BME280;61996;49.910;35.562;2023-04-24T09:57:48;99272.88;;;21.57;39.13
73692;BME280;61996;49.910;35.562;2023-04-24T10:00:53;99266.69;;;21.57;38.97
73692;BME280;61996;49.910;35.562;2023-04-24T10:04:00;99262.19;;;21.57;39.02
73692;BME280;61996;49.910;35.562;2023-04-24T10:07:03;99249.97;;;21.63;38.68
73692;BME280;61996;49.910;35.562;2023-04-24T10:10:08;99266.03;;;21.63;38.55
73692;BME280;61996;49.910;35.562;2023-04-24T10:13:13;99268.03;;;21.61;38.50
73692;BME280;61996;49.910;35.562;2023-04-24T10:16:16;99253.31;;;21.65;38.85
73692;BME280;61996;49.910;35.562;2023-04-24T10:19:21;99266.34;;;21.68;38.45
73692;BME280;61996;49.910;35.562;2023-04-24T10:22:24;99266.69;;;21.73;37.97
73692;BME280;61996;49.910;35.562;2023-04-24T10:25:27;99257.66;;;21.74;38.37
73692;BME280;61996;49.910;35.562;2023-04-24T10:28:30;99259.50;;;21.82;37.23
73692;BME280;61996;49.910;35.562;2023-04-24T10:31:34;99264.69;;;21.75;38.19
73692;BME280;61996;49.910;35.562;2023-04-24T10:34:39;99249.28;;;21.69;38.39
73692;BME280;61996;49.910;35.562;2023-04-24T10:37:42;99252.31;;;21.74;38.23
73692;BME280;61996;49.910;35.562;2023-04-24T10:40:46;99239.94;;;21.73;38.37
73692;BME280;61996;49.910;35.562;2023-04-24T10:44:03;99243.63;;;21.72;38.42
73692;BME280;61996;49.910;35.562;2023-04-24T10:47:07;99240.47;;;21.77;38.25
73692;BME280;61996;49.910;35.562;2023-04-24T10:50:16;99234.41;;;21.75;38.22
73692;BME280;61996;49.910;35.562;2023-04-24T10:53:20;99235.09;;;21.77;38.24
73692;BME280;61996;49.910;35.562;2023-04-24T10:56:24;99237.09;;;21.83;38.35
73692;BME280;61996;49.910;35.562;2023-04-24T10:59:29;99226.56;;;21.81;38.41
73692;BME280;61996;49.910;35.562;2023-04-24T11:02:39;99228.06;;;21.84;38.38
73692;BME280;61996;49.910;35.562;2023-04-24T11:05:52;99222.38;;;21.87;38.43
73692;BME280;61996;49.910;35.562;2023-04-24T11:08:58;99216.00;;;21.88;38.04
73692;BME280;61996;49.910;35.562;2023-04-24T11:12:04;99221.38;;;21.88;38.36
73692;BME280;61996;49.910;35.562;2023-04-24T11:15:10;99218.50;;;21.89;38.18
73692;BME280;61996;49.910;35.562;2023-04-24T11:18:13;99225.22;;;21.85;38.14
73692;BME280;61996;49.910;35.562;2023-04-24T11:21:18;99220.72;;;21.86;38.12
73692;BME280;61996;49.910;35.562;2023-04-24T11:24:22;99226.53;;;21.89;38.17
73692;BME280;61996;49.910;35.562;2023-04-24T11:27:25;99208.31;;;21.93;38.06
73692;BME280;61996;49.910;35.562;2023-04-24T11:30:32;99214.50;;;21.94;38.07
73692;BME280;61996;49.910;35.562;2023-04-24T11:33:35;99203.44;;;21.97;38.12
73692;BME280;61996;49.910;35.562;2023-04-24T11:36:39;99217.53;;;21.99;38.31
73692;BME280;61996;49.910;35.562;2023-04-24T11:39:42;99210.50;;;21.98;38.53
73692;BME280;61996;49.910;35.562;2023-04-24T11:42:46;99203.13;;;22.00;38.18
73692;BME280;61996;49.910;35.562;2023-04-24T11:45:49;99199.44;;;22.01;38.37
73692;BME280;61996;49.910;35.562;2023-04-24T11:48:52;99208.81;;;22.05;37.91
73692;BME280;61996;49.910;35.562;2023-04-24T11:51:57;99194.09;;;22.01;38.20
73692;BME280;61996;49.910;35.562;2023-04-24T11:55:01;99198.59;;;22.00;38.04
73692;BME280;61996;49.910;35.562;2023-04-24T11:58:05;99193.72;;;22.04;38.02
73692;BME280;61996;49.910;35.562;2023-04-24T12:01:08;99191.75;;;22.06;38.14
73692;BME280;61996;49.910;35.562;2023-04-24T12:04:11;99197.59;;;22.01;38.05
73692;BME280;61996;49.910;35.562;2023-04-24T12:07:15;99192.41;;;22.08;38.49
73692;BME280;61996;49.910;35.562;2023-04-24T12:10:19;99190.41;;;22.10;38.26
73692;BME280;61996;49.910;35.562;2023-04-24T12:13:22;99192.22;;;22.17;37.92
73692;BME280;61996;49.910;35.562;2023-04-24T12:16:27;99186.41;;;22.14;38.64
73692;BME280;61996;49.910;35.562;2023-04-24T12:19:32;99183.19;;;22.10;38.93
73692;BME280;61996;49.910;35.562;2023-04-24T12:22:45;99180.19;;;22.13;38.31
73692;BME280;61996;49.910;35.562;2023-04-24T12:25:50;99183.03;;;22.20;38.48
73692;BME280;61996;49.910;35.562;2023-04-24T12:28:53;99174.66;;;22.15;38.31
73692;BME280;61996;49.910;35.562;2023-04-24T12:31:56;99171.28;;;22.29;37.72
73692;BME280;61996;49.910;35.562;2023-04-24T12:34:59;99163.09;;;22.23;37.81
73692;BME280;61996;49.910;35.562;2023-04-24T12:38:06;99170.47;;;22.21;38.40
73692;BME280;61996;49.910;35.562;2023-04-24T12:41:10;99173.34;;;22.19;38.13
73692;BME280;61996;49.910;35.562;2023-04-24T12:44:14;99173.16;;;22.21;38.30
73692;BME280;61996;49.910;35.562;2023-04-24T12:47:17;99167.13;;;22.19;38.20
73692;BME280;61996;49.910;35.562;2023-04-24T12:50:20;99167.13;;;22.19;38.22
73692;BME280;61996;49.910;35.562;2023-04-24T12:53:24;99164.28;;;22.20;37.92
73692;BME280;61996;49.910;35.562;2023-04-24T12:56:30;99166.13;;;22.20;38.20
73692;BME280;61996;49.910;35.562;2023-04-24T12:59:32;99162.75;;;22.17;38.32
73692;BME280;61996;49.910;35.562;2023-04-24T13:02:35;99151.41;;;22.15;38.26
73692;BME280;61996;49.910;35.562;2023-04-24T13:05:38;99157.91;;;22.21;37.80
73692;BME280;61996;49.910;35.562;2023-04-24T13:08:43;99148.41;;;22.19;38.22
73692;BME280;61996;49.910;35.562;2023-04-24T13:11:46;99156.44;;;22.19;37.95
73692;BME280;61996;49.910;35.562;2023-04-24T13:14:49;99150.38;;;22.16;37.83
73692;BME280;61996;49.910;35.562;2023-04-24T13:17:51;99149.56;;;22.16;38.04
73692;BME280;61996;49.910;35.562;2023-04-24T13:20:55;99153.06;;;22.16;38.11
73692;BME280;61996;49.910;35.562;2023-04-24T13:23:59;99153.22;;;22.23;37.80
73692;BME280;61996;49.910;35.562;2023-04-24T13:27:02;99138.84;;;22.16;38.16
73692;BME280;61996;49.910;35.562;2023-04-24T13:30:05;99152.88;;;22.18;38.36
73692;BME280;61996;49.910;35.562;2023-04-24T13:33:08;99154.59;;;22.19;38.04
73692;BME280;61996;49.910;35.562;2023-04-24T13:36:11;99143.19;;;22.17;38.35
73692;BME280;61996;49.910;35.562;2023-04-24T13:39:15;99147.84;;;22.23;37.79
73692;BME280;61996;49.910;35.562;2023-04-24T13:42:18;99139.38;;;22.11;37.80
73692;BME280;61996;49.910;35.562;2023-04-24T13:45:21;99136.97;;;22.25;37.82
73692;BME280;61996;49.910;35.562;2023-04-24T13:48:26;99137.78;;;22.25;37.85
73692;BME280;61996;49.910;35.562;2023-04-24T13:51:28;99132.44;;;22.25;37.48
73692;BME280;61996;49.910;35.562;2023-04-24T13:54:33;99133.63;;;22.23;37.82
73692;BME280;61996;49.910;35.562;2023-04-24T13:57:36;99132.63;;;22.24;37.64
73692;BME280;61996;49.910;35.562;2023-04-24T14:00:38;99132.13;;;22.28;37.55
73692;BME280;61996;49.910;35.562;2023-04-24T14:03:41;99124.91;;;22.29;37.83
73692;BME280;61996;49.910;35.562;2023-04-24T14:06:45;99127.53;;;22.37;37.04
73692;BME280;61996;49.910;35.562;2023-04-24T14:09:49;99126.25;;;22.33;37.01
73692;BME280;61996;49.910;35.562;2023-04-24T14:12:52;99115.53;;;22.33;37.52
73692;BME280;61996;49.910;35.562;2023-04-24T14:15:55;99122.38;;;22.35;36.89
73692;BME280;61996;49.910;35.562;2023-04-24T14:18:58;99125.19;;;22.42;37.02
73692;BME280;61996;49.910;35.562;2023-04-24T14:22:01;99123.72;;;22.39;37.21
73692;BME280;61996;49.910;35.562;2023-04-24T14:25:06;99116.19;;;22.35;37.48
73692;BME280;61996;49.910;35.562;2023-04-24T14:28:09;99125.69;;;22.37;37.60
73692;BME280;61996;49.910;35.562;2023-04-24T14:31:12;99118.69;;;22.36;37.04
73692;BME280;61996;49.910;35.562;2023-04-24T14:34:15;99122.38;;;22.35;37.69
73692;BME280;61996;49.910;35.562;2023-04-24T14:37:17;99115.81;;;22.38;37.34
73692;BME280;61996;49.910;35.562;2023-04-24T14:40:22;99119.34;;;22.38;37.27
73692;BME280;61996;49.910;35.562;2023-04-24T14:43:44;99112.13;;;22.39;37.50
73692;BME280;61996;49.910;35.562;2023-04-24T14:46:48;99111.28;;;22.38;37.21
73692;BME280;61996;49.910;35.562;2023-04-24T14:49:51;99109.44;;;22.39;36.56
73692;BME280;61996;49.910;35.562;2023-04-24T14:52:54;99109.63;;;22.37;37.25
73692;BME280;61996;49.910;35.562;2023-04-24T14:56:00;99104.97;;;22.39;37.53
73692;BME280;61996;49.910;35.562;2023-04-24T14:59:02;99099.88;;;22.44;37.32
73692;BME280;61996;49.910;35.562;2023-04-24T15:02:06;99108.94;;;22.43;36.93
73692;BME280;61996;49.910;35.562;2023-04-24T15:05:18;99104.22;;;22.46;36.81
73692;BME280;61996;49.910;35.562;2023-04-24T15:08:21;99107.28;;;22.42;37.10
73692;BME280;61996;49.910;35.562;2023-04-24T15:11:26;99098.22;;;22.43;36.73
73692;BME280;61996;49.910;35.562;2023-04-24T15:14:29;99104.41;;;22.44;37.03
73692;BME280;61996;49.910;35.562;2023-04-24T15:17:35;99099.38;;;22.49;36.80
73692;BME280;61996;49.910;35.562;2023-04-24T15:20:38;99098.22;;;22.43;36.89
73692;BME280;61996;49.910;35.562;2023-04-24T15:23:42;99105.41;;;21.87;35.56
73692;BME280;61996;49.910;35.562;2023-04-24T15:26:47;99099.03;;;21.97;36.51
73692;BME280;61996;49.910;35.562;2023-04-24T15:29:49;99103.03;;;22.01;35.78
73692;BME280;61996;49.910;35.562;2023-04-24T15:32:52;99104.41;;;21.88;36.55
73692;BME280;61996;49.910;35.562;2023-04-24T15:35:55;99106.47;;;21.70;35.82
73692;BME280;61996;49.910;35.562;2023-04-24T15:38:58;99100.13;;;21.47;35.43
73692;BME280;61996;49.910;35.562;2023-04-24T15:42:06;99087.75;;;21.46;35.79
73692;BME280;61996;49.910;35.562;2023-04-24T15:45:09;99100.47;;;21.44;36.03
73692;BME280;61996;49.910;35.562;2023-04-24T15:48:12;99104.16;;;21.43;35.88
73692;BME280;61996;49.910;35.562;2023-04-24T15:51:15;99100.63;;;21.34;35.98
73692;BME280;61996;49.910;35.562;2023-04-24T15:54:17;99101.47;;;21.34;36.04
73692;BME280;61996;49.910;35.562;2023-04-24T15:57:21;99105.13;;;21.25;36.26
73692;BME280;61996;49.910;35.562;2023-04-24T16:00:24;99095.44;;;21.41;36.94